Sovereign — 9HUE9 — position and weather

sailwx.info

Track history (hours):
 
Tides and Currents Weather Stations Pressure Air Temp Water Temp Dewpoint Dewpoint Depression Visibility Wind Speed Wind Dir Waves Ship Positions

Sovereign

Last reported at 2016-Jun-29 21:33 UTC. Time now 2016-Jun-29 23:48 UTC.
Position N 42°04' E 010°24'.

Length 268 m; draft 7.7 m.

Type: Passenger vessel. MMSI: 249539000.

Date/timePositionNaut miles runAvg speedWind from/ knotsBaromVisibWave heightAir tempDewpointWater temp
2016-Jun-29 21:33N 42°04' E 010°24'2015.0
2016-Jun-29 20:12N 42°01' E 010°51'1315.0
2016-Jun-29 19:21N 41°59' E 011°08'1516.4
2016-Jun-29 18:28N 41°56' E 011°27'1616.2
2016-Jun-29 17:30N 42°06' E 011°43'83 4.7
2016-Jun-28 23:33N 40°52' E 012°34'2814.0
2016-Jun-28 21:33N 40°45' E 013°10'1414.1
2016-Jun-28 20:33N 40°42' E 013°28'1714.0
2016-Jun-28 19:21N 40°38' E 013°50'1113.7
2016-Jun-28 18:33N 40°39' E 014°04'1413.8
2016-Jun-28 17:34N 40°49' E 014°17'2 1.5
2016-Jun-28 16:33N 40°50' E 014°15'1 0.1
2016-Jun-28 06:23N 40°50' E 014°17'2111.6
2016-Jun-28 04:33N 40°35' E 013°56'304 8.0
2016-Jun-26 14:26N 41°42' E 007°22'1012.0
2016-Jun-26 13:33N 41°46' E 007°09'1211.9
2016-Jun-26 12:33N 41°50' E 006°54'13711.2
2016-Jun-26 00:19N 41°27' E 003°54'911.6
2016-Jun-25 23:33N 41°26' E 003°42'1010.4
2016-Jun-25 22:33N 41°24' E 003°28'10 9.9
2016-Jun-25 21:33N 41°22' E 003°15'1110.7
2016-Jun-25 20:33N 41°20' E 003°01'1111.2
2016-Jun-25 19:33N 41°18' E 002°46'1111.1
2016-Jun-25 18:33N 41°16' E 002°32'1111.1
2016-Jun-25 17:33N 41°16' E 002°17'7 7.0
2016-Jun-25 16:33N 41°21' E 002°10'0 0.4
2016-Jun-25 15:31N 41°22' E 002°11'0 0.0
2016-Jun-25 14:31N 41°22' E 002°11'0 0.0
2016-Jun-25 13:25N 41°22' E 002°11'0 0.0
2016-Jun-25 12:25N 41°22' E 002°11'0 0.0
2016-Jun-25 11:28N 41°22' E 002°11'0 0.0
2016-Jun-25 10:22N 41°22' E 002°11'0 0.0
2016-Jun-25 09:13N 41°22' E 002°11'0 0.0
2016-Jun-25 08:13N 41°22' E 002°11'0 0.0
2016-Jun-25 07:13N 41°22' E 002°11'0 0.4
2016-Jun-25 06:32N 41°21' E 002°10'8 7.7
2016-Jun-25 05:33N 41°16' E 002°18'1615.5
2016-Jun-25 04:33N 41°17' E 002°39'1615.9
2016-Jun-25 03:33N 41°26' E 002°56'1615.7
2016-Jun-25 02:32N 41°35' E 003°13'4915.6
2016-Jun-24 23:25N 42°03' E 004°07'1314.3
2016-Jun-24 22:30N 42°11' E 004°21'1414.8
2016-Jun-24 21:33N 42°19' E 004°37'1716.8
2016-Jun-24 20:33N 42°28' E 004°55'1717.1
2016-Jun-24 19:33N 42°38' E 005°14'4116.7
2016-Jun-24 17:06N 43°03' E 005°59'4 7.5
2016-Jun-24 16:34N 43°07' E 005°56'0 0.0
2016-Jun-24 11:29N 43°07' E 005°56'0 0.0
2016-Jun-24 10:29N 43°07' E 005°56'0 0.0
2016-Jun-24 09:29N 43°07' E 005°56'0 0.0
2016-Jun-24 07:23N 43°07' E 005°56'2 2.1
2016-Jun-24 06:33N 43°05' E 005°57'5713.7
2016-Jun-24 02:25N 43°04' E 007°15'1315.2
2016-Jun-24 01:33N 43°07' E 007°32'1515.1
2016-Jun-24 00:33N 43°10' E 007°52'1515.0
2016-Jun-23 23:33N 43°14' E 008°12'1514.6
2016-Jun-23 22:33N 43°17' E 008°32'1515.0
2016-Jun-23 21:33N 43°21' E 008°52'1515.1
2016-Jun-23 20:33N 43°24' E 009°12'1515.3
2016-Jun-23 19:33N 43°28' E 009°32'1615.6
2016-Jun-23 18:33N 43°32' E 009°53'1514.6
2016-Jun-23 17:33N 43°32' E 010°13'4 3.3
2016-Jun-23 16:27N 43°33' E 010°18'0 0.0
2016-Jun-23 15:33N 43°33' E 010°18'0 0.0
2016-Jun-23 14:33N 43°33' E 010°18'0 0.0
2016-Jun-23 13:33N 43°33' E 010°18'0 0.0
2016-Jun-23 12:27N 43°33' E 010°18'0 0.0
2016-Jun-23 11:24N 43°33' E 010°18'0 0.0
2016-Jun-23 10:27N 43°33' E 010°18'0 0.0
2016-Jun-23 09:33N 43°33' E 010°18'0 0.0
2016-Jun-23 08:33N 43°33' E 010°18'0 0.0
2016-Jun-23 07:33N 43°33' E 010°18'0 0.0
2016-Jun-23 05:33N 43°33' E 010°18'3 2.7
2016-Jun-23 04:34N 43°31' E 010°16'1413.9
2016-Jun-23 03:34N 43°18' E 010°09'1616.1
2016-Jun-23 02:34N 43°03' E 010°04'1515.4
2016-Jun-23 01:33N 42°48' E 009°60'167 6.3
2016-Jun-21 23:14N 40°51' E 012°40'911.9
2016-Jun-21 22:30N 40°49' E 012°51'2512.6
2016-Jun-21 20:32N 40°42' E 013°23'1212.4
2016-Jun-21 19:33N 40°40' E 013°38'1212.4
2016-Jun-21 18:33N 40°38' E 013°55'1212.2
2016-Jun-21 17:33N 40°43' E 014°09'  
Track history (hours):
 
Tides and Currents Weather Stations Pressure Air Temp Water Temp Dewpoint Dewpoint Depression Visibility Wind Speed Wind Dir Waves Ship Positions

Sovereign

Last reported at 2016-Jun-29 21:33 UTC. Time now 2016-Jun-29 23:48 UTC.
Position N 42°04' E 010°24'.

Length 268 m; draft 7.7 m.

Type: Passenger vessel. MMSI: 249539000.

Date/timePositionNaut miles runAvg speedWind from/ knotsBaromVisibWave heightAir tempDewpointWater temp
2016-Jun-29 21:33N 42°04' E 010°24'2015.0
2016-Jun-29 20:12N 42°01' E 010°51'1315.0
2016-Jun-29 19:21N 41°59' E 011°08'1516.4
2016-Jun-29 18:28N 41°56' E 011°27'1616.2
2016-Jun-29 17:30N 42°06' E 011°43'83 4.7
2016-Jun-28 23:33N 40°52' E 012°34'2814.0
2016-Jun-28 21:33N 40°45' E 013°10'1414.1
2016-Jun-28 20:33N 40°42' E 013°28'1714.0
2016-Jun-28 19:21N 40°38' E 013°50'1113.7
2016-Jun-28 18:33N 40°39' E 014°04'1413.8
2016-Jun-28 17:34N 40°49' E 014°17'2 1.5
2016-Jun-28 16:33N 40°50' E 014°15'1 0.1
2016-Jun-28 06:23N 40°50' E 014°17'2111.6
2016-Jun-28 04:33N 40°35' E 013°56'304 8.0
2016-Jun-26 14:26N 41°42' E 007°22'1012.0
2016-Jun-26 13:33N 41°46' E 007°09'1211.9
2016-Jun-26 12:33N 41°50' E 006°54'13711.2
2016-Jun-26 00:19N 41°27' E 003°54'911.6
2016-Jun-25 23:33N 41°26' E 003°42'1010.4
2016-Jun-25 22:33N 41°24' E 003°28'10 9.9
2016-Jun-25 21:33N 41°22' E 003°15'1110.7
2016-Jun-25 20:33N 41°20' E 003°01'1111.2
2016-Jun-25 19:33N 41°18' E 002°46'1111.1
2016-Jun-25 18:33N 41°16' E 002°32'1111.1
2016-Jun-25 17:33N 41°16' E 002°17'7 7.0
2016-Jun-25 16:33N 41°21' E 002°10'0 0.4
2016-Jun-25 15:31N 41°22' E 002°11'0 0.0
2016-Jun-25 14:31N 41°22' E 002°11'0 0.0
2016-Jun-25 13:25N 41°22' E 002°11'0 0.0
2016-Jun-25 12:25N 41°22' E 002°11'0 0.0
2016-Jun-25 11:28N 41°22' E 002°11'0 0.0
2016-Jun-25 10:22N 41°22' E 002°11'0 0.0
2016-Jun-25 09:13N 41°22' E 002°11'0 0.0
2016-Jun-25 08:13N 41°22' E 002°11'0 0.0
2016-Jun-25 07:13N 41°22' E 002°11'0 0.4
2016-Jun-25 06:32N 41°21' E 002°10'8 7.7
2016-Jun-25 05:33N 41°16' E 002°18'1615.5
2016-Jun-25 04:33N 41°17' E 002°39'1615.9
2016-Jun-25 03:33N 41°26' E 002°56'1615.7
2016-Jun-25 02:32N 41°35' E 003°13'4915.6
2016-Jun-24 23:25N 42°03' E 004°07'1314.3
2016-Jun-24 22:30N 42°11' E 004°21'1414.8
2016-Jun-24 21:33N 42°19' E 004°37'1716.8
2016-Jun-24 20:33N 42°28' E 004°55'1717.1
2016-Jun-24 19:33N 42°38' E 005°14'4116.7
2016-Jun-24 17:06N 43°03' E 005°59'4 7.5
2016-Jun-24 16:34N 43°07' E 005°56'0 0.0
2016-Jun-24 11:29N 43°07' E 005°56'0 0.0
2016-Jun-24 10:29N 43°07' E 005°56'0 0.0
2016-Jun-24 09:29N 43°07' E 005°56'0 0.0
2016-Jun-24 07:23N 43°07' E 005°56'2 2.1
2016-Jun-24 06:33N 43°05' E 005°57'5713.7
2016-Jun-24 02:25N 43°04' E 007°15'1315.2
2016-Jun-24 01:33N 43°07' E 007°32'1515.1
2016-Jun-24 00:33N 43°10' E 007°52'1515.0
2016-Jun-23 23:33N 43°14' E 008°12'1514.6
2016-Jun-23 22:33N 43°17' E 008°32'1515.0
2016-Jun-23 21:33N 43°21' E 008°52'1515.1
2016-Jun-23 20:33N 43°24' E 009°12'1515.3
2016-Jun-23 19:33N 43°28' E 009°32'1615.6
2016-Jun-23 18:33N 43°32' E 009°53'1514.6
2016-Jun-23 17:33N 43°32' E 010°13'4 3.3
2016-Jun-23 16:27N 43°33' E 010°18'0 0.0
2016-Jun-23 15:33N 43°33' E 010°18'0 0.0
2016-Jun-23 14:33N 43°33' E 010°18'0 0.0
2016-Jun-23 13:33N 43°33' E 010°18'0 0.0
2016-Jun-23 12:27N 43°33' E 010°18'0 0.0
2016-Jun-23 11:24N 43°33' E 010°18'0 0.0
2016-Jun-23 10:27N 43°33' E 010°18'0 0.0
2016-Jun-23 09:33N 43°33' E 010°18'0 0.0
2016-Jun-23 08:33N 43°33' E 010°18'0 0.0
2016-Jun-23 07:33N 43°33' E 010°18'0 0.0
2016-Jun-23 05:33N 43°33' E 010°18'3 2.7
2016-Jun-23 04:34N 43°31' E 010°16'1413.9
2016-Jun-23 03:34N 43°18' E 010°09'1616.1
2016-Jun-23 02:34N 43°03' E 010°04'1515.4
2016-Jun-23 01:33N 42°48' E 009°60'167 6.3
2016-Jun-21 23:14N 40°51' E 012°40'911.9
2016-Jun-21 22:30N 40°49' E 012°51'2512.6
2016-Jun-21 20:32N 40°42' E 013°23'1212.4
2016-Jun-21 19:33N 40°40' E 013°38'1212.4
2016-Jun-21 18:33N 40°38' E 013°55'1212.2
2016-Jun-21 17:33N 40°43' E 014°09'  

Dump ship's entire track history